Time;durP1;ratioP1;P1;durP2;ratioP2;P2;SDS_P1;SDS_P2;PMS_P1;PMS_P2;Temp;Humidity;BMP_temperature;BMP_pressure;BME280_temperature;BME280_humidity;BME280_pressure;Samples;Min_cycle;Max_cycle;Signal;HPM_P1;HPM_P2
2022/06/29 00:02:25;;;;;;;;;;;25.00;96.50;;;;;;5074746;28;19919;-61
2022/06/29 00:04:50;;;;;;;;;;;25.10;96.50;;;;;;5074652;28;19909;-61
2022/06/29 00:07:16;;;;;;;;;;;25.00;96.50;;;;;;5074328;28;20086;-61
2022/06/29 00:09:41;;;;;;;;;;;25.00;96.50;;;;;;5074296;28;20252;-61
2022/06/29 00:12:07;;;;;;;;;;;25.00;96.50;;;;;;5074232;28;19912;-61
2022/06/29 00:14:41;;;;;;;;;;;25.00;96.50;;;;;;5073273;28;20419;-61
2022/06/29 00:17:10;;;;;;;;;;;25.00;96.50;;;;;;5074252;28;20394;-60
2022/06/29 00:19:36;;;;;;;;;;;25.00;96.50;;;;;;5074405;28;20011;-61
2022/06/29 00:22:02;;;;;;;;;;;25.00;96.50;;;;;;5074451;28;19962;-61
2022/06/29 00:24:29;;;;;;;;;;;25.00;96.60;;;;;;5074448;28;20369;-61
2022/06/29 00:26:54;;;;;;;;;;;25.00;96.60;;;;;;5073086;28;20268;-61
2022/06/29 00:29:19;;;;;;;;;;;25.00;96.60;;;;;;5074375;28;19919;-61
2022/06/29 00:31:45;;;;;;;;;;;25.00;96.50;;;;;;5074009;28;19954;-61
2022/06/29 00:34:11;;;;;;;;;;;25.00;96.50;;;;;;5073896;28;19908;-61
2022/06/29 00:36:36;;;;;;;;;;;25.00;96.50;;;;;;5056269;28;19913;-61
2022/06/29 00:39:01;;;;;;;;;;;25.00;96.50;;;;;;5074180;28;19915;-61
2022/06/29 00:41:27;;;;;;;;;;;25.00;96.50;;;;;;5073751;28;19912;-61
2022/06/29 00:43:52;;;;;;;;;;;25.00;96.50;;;;;;5074188;28;19959;-61
2022/06/29 00:46:18;;;;;;;;;;;25.00;96.50;;;;;;5074163;28;20271;-61
2022/06/29 00:48:43;;;;;;;;;;;25.00;96.50;;;;;;5073821;28;19991;-61
2022/06/29 00:51:10;;;;;;;;;;;25.00;96.50;;;;;;5074431;28;19909;-61
2022/06/29 00:53:39;;;;;;;;;;;25.00;96.50;;;;;;5074077;28;19995;-61
2022/06/29 00:56:07;;;;;;;;;;;25.00;96.50;;;;;;5073572;28;19912;-61
2022/06/29 00:58:33;;;;;;;;;;;25.10;96.50;;;;;;5074020;28;19915;-61
2022/06/29 01:01:02;;;;;;;;;;;25.00;96.50;;;;;;5073580;28;20020;-61
2022/06/29 01:03:27;;;;;;;;;;;25.00;96.50;;;;;;5073929;28;19958;-61
2022/06/29 01:05:54;;;;;;;;;;;25.00;96.50;;;;;;5073641;28;19913;-61
2022/06/29 01:08:19;;;;;;;;;;;25.00;96.50;;;;;;5076267;28;20405;-60
2022/06/29 01:10:45;;;;;;;;;;;25.00;96.50;;;;;;5078100;28;19934;-61
2022/06/29 01:13:11;;;;;;;;;;;25.00;96.50;;;;;;5077905;28;19916;-61
2022/06/29 01:15:36;;;;;;;;;;;25.00;96.50;;;;;;5077922;28;20359;-61
2022/06/29 01:18:02;;;;;;;;;;;25.00;96.50;;;;;;5077926;28;19923;-61
2022/06/29 01:20:27;;;;;;;;;;;25.00;96.50;;;;;;5077755;28;20013;-61
2022/06/29 01:22:53;;;;;;;;;;;25.00;96.40;;;;;;5077517;28;19913;-61
2022/06/29 01:25:19;;;;;;;;;;;25.10;96.50;;;;;;5077725;28;19908;-61
2022/06/29 01:27:45;;;;;;;;;;;25.00;96.40;;;;;;5077446;28;19992;-61
2022/06/29 01:30:11;;;;;;;;;;;25.00;96.50;;;;;;5077969;28;20354;-61
2022/06/29 01:32:40;;;;;;;;;;;25.00;96.50;;;;;;5077332;28;19908;-61
2022/06/29 01:35:10;;;;;;;;;;;25.00;96.50;;;;;;5077854;28;19913;-61
2022/06/29 01:37:36;;;;;;;;;;;25.00;96.40;;;;;;5077466;28;19908;-61
2022/06/29 01:40:02;;;;;;;;;;;25.00;96.50;;;;;;5077175;28;20412;-61
2022/06/29 01:42:28;;;;;;;;;;;25.00;96.50;;;;;;5077115;28;19913;-61
2022/06/29 01:44:53;;;;;;;;;;;25.00;96.40;;;;;;5059428;28;19958;-61
2022/06/29 01:47:19;;;;;;;;;;;25.00;96.50;;;;;;5059420;28;20263;-61
2022/06/29 01:49:44;;;;;;;;;;;25.00;96.40;;;;;;5076914;28;19930;-60
2022/06/29 01:52:10;;;;;;;;;;;25.00;96.50;;;;;;5059287;28;19908;-61
2022/06/29 01:54:35;;;;;;;;;;;25.00;96.50;;;;;;5077232;28;19914;-61
2022/06/29 01:57:01;;;;;;;;;;;25.00;96.40;;;;;;5077034;28;19920;-61
2022/06/29 01:59:26;;;;;;;;;;;25.00;96.40;;;;;;5077034;28;19991;-61
2022/06/29 02:01:52;;;;;;;;;;;25.00;96.40;;;;;;5076687;28;19913;-61
2022/06/29 02:04:17;;;;;;;;;;;25.00;96.50;;;;;;5076759;28;20023;-61
2022/06/29 02:06:43;;;;;;;;;;;25.00;96.50;;;;;;5076690;28;19915;-61
2022/06/29 02:09:08;;;;;;;;;;;25.00;96.50;;;;;;5077243;28;20347;-60
2022/06/29 02:11:34;;;;;;;;;;;25.00;96.60;;;;;;5059009;28;19912;-61
2022/06/29 02:13:59;;;;;;;;;;;25.00;96.50;;;;;;5076798;28;20266;-61
2022/06/29 02:16:25;;;;;;;;;;;25.00;96.50;;;;;;5076495;28;20004;-61
2022/06/29 02:18:50;;;;;;;;;;;25.00;96.40;;;;;;5075919;28;19916;-61
2022/06/29 02:21:16;;;;;;;;;;;25.10;96.40;;;;;;5076592;28;19912;-61
2022/06/29 02:23:41;;;;;;;;;;;25.00;96.40;;;;;;5076709;28;19917;-61
2022/06/29 02:26:07;;;;;;;;;;;25.00;96.40;;;;;;5076652;28;19912;-61
2022/06/29 02:28:32;;;;;;;;;;;25.00;96.40;;;;;;5076593;28;19989;-61
2022/06/29 02:36:27;;;;;;;;;;;25.00;96.40;;;;;;5076252;28;20016;-61
2022/06/29 02:38:52;;;;;;;;;;;25.00;96.40;;;;;;5076108;28;19936;-61
2022/06/29 02:41:18;;;;;;;;;;;25.00;96.40;;;;;;5075008;28;19912;-60
2022/06/29 02:43:45;;;;;;;;;;;25.00;96.40;;;;;;5076581;28;19912;-61
2022/06/29 02:46:10;;;;;;;;;;;25.00;96.40;;;;;;5076270;28;20274;-61
2022/06/29 02:48:36;;;;;;;;;;;25.00;96.40;;;;;;5076523;28;19909;-60
2022/06/29 02:51:01;;;;;;;;;;;25.00;96.40;;;;;;5076121;28;19909;-59
2022/06/29 02:53:27;;;;;;;;;;;24.90;96.40;;;;;;5076161;28;19919;-61
2022/06/29 02:55:52;;;;;;;;;;;25.00;96.40;;;;;;5075818;28;19982;-60
2022/06/29 02:58:18;;;;;;;;;;;24.90;96.40;;;;;;5075569;28;19983;-61
2022/06/29 03:00:43;;;;;;;;;;;25.00;96.50;;;;;;5075899;28;20446;-61
2022/06/29 03:03:08;;;;;;;;;;;24.90;96.50;;;;;;5075585;28;19948;-61
2022/06/29 03:05:37;;;;;;;;;;;25.00;96.50;;;;;;5075771;28;19931;-60
2022/06/29 03:08:03;;;;;;;;;;;25.00;96.50;;;;;;5075798;28;19909;-61
2022/06/29 03:10:28;;;;;;;;;;;25.00;96.50;;;;;;5075580;28;19908;-60
2022/06/29 03:12:54;;;;;;;;;;;24.90;96.40;;;;;;5075318;28;20336;-61
2022/06/29 03:15:19;;;;;;;;;;;25.00;96.40;;;;;;5074218;28;19908;-61
2022/06/29 03:17:45;;;;;;;;;;;25.00;96.40;;;;;;5075618;28;19955;-61
2022/06/29 03:20:13;;;;;;;;;;;24.90;96.40;;;;;;5075501;28;19935;-61
2022/06/29 03:22:38;;;;;;;;;;;25.00;96.40;;;;;;5075561;28;19924;-61
2022/06/29 03:25:04;;;;;;;;;;;25.00;96.40;;;;;;5075442;28;20347;-60
2022/06/29 03:27:32;;;;;;;;;;;25.00;96.40;;;;;;5075303;28;19916;-61
2022/06/29 03:29:58;;;;;;;;;;;25.00;96.50;;;;;;5074399;28;20062;-61
2022/06/29 03:32:23;;;;;;;;;;;25.00;96.40;;;;;;5074978;28;19958;-61
2022/06/29 03:34:49;;;;;;;;;;;25.00;96.40;;;;;;5074978;28;19999;-61
2022/06/29 03:37:14;;;;;;;;;;;25.00;96.40;;;;;;5074864;28;20282;-61
2022/06/29 03:39:41;;;;;;;;;;;25.00;96.50;;;;;;5075061;28;19919;-60
2022/06/29 03:42:07;;;;;;;;;;;24.90;96.40;;;;;;5075047;28;20282;-61
2022/06/29 03:44:32;;;;;;;;;;;25.00;96.40;;;;;;5074731;28;19909;-60
2022/06/29 03:46:58;;;;;;;;;;;24.90;96.40;;;;;;5074710;28;19909;-61
2022/06/29 03:49:23;;;;;;;;;;;24.90;96.40;;;;;;5074597;28;19908;-60
2022/06/29 03:51:49;;;;;;;;;;;25.00;96.50;;;;;;5074881;28;20405;-61
2022/06/29 03:54:14;;;;;;;;;;;25.00;96.40;;;;;;5074734;28;19948;-61
2022/06/29 03:56:40;;;;;;;;;;;24.90;96.70;;;;;;5056681;28;20355;-61
2022/06/29 03:59:05;;;;;;;;;;;24.90;96.40;;;;;;5074469;28;19916;-60
2022/06/29 04:01:31;;;;;;;;;;;24.90;96.40;;;;;;5074433;28;19957;-61
2022/06/29 04:03:56;;;;;;;;;;;24.90;96.40;;;;;;5074611;28;20271;-61
2022/06/29 04:06:22;;;;;;;;;;;24.90;96.40;;;;;;5074230;28;19909;-61
2022/06/29 04:08:47;;;;;;;;;;;24.90;96.40;;;;;;5074451;28;19915;-61
2022/06/29 04:13:57;;;;;;;;;;;24.90;96.40;;;;;;5074294;28;20286;-60
2022/06/29 04:16:22;;;;;;;;;;;24.90;96.40;;;;;;5074488;28;20347;-60
2022/06/29 04:18:48;;;;;;;;;;;25.00;96.40;;;;;;5074304;28;19930;-60
2022/06/29 04:21:13;;;;;;;;;;;25.00;96.40;;;;;;5074124;28;19920;-61
2022/06/29 04:23:39;;;;;;;;;;;24.90;96.40;;;;;;5074192;28;20340;-60
2022/06/29 04:26:05;;;;;;;;;;;24.90;96.40;;;;;;5073821;28;19917;-60
2022/06/29 04:28:30;;;;;;;;;;;24.90;96.40;;;;;;5074303;28;20243;-61
2022/06/29 04:30:56;;;;;;;;;;;24.90;96.40;;;;;;5074299;28;20362;-61
2022/06/29 04:33:21;;;;;;;;;;;25.00;96.40;;;;;;5056199;28;19909;-61
2022/06/29 04:35:47;;;;;;;;;;;25.00;96.40;;;;;;5074213;28;19961;-61
2022/06/29 04:38:12;;;;;;;;;;;24.90;96.40;;;;;;5074049;28;19915;-61
2022/06/29 04:40:38;;;;;;;;;;;25.00;96.40;;;;;;5074239;28;19920;-61
2022/06/29 04:43:03;;;;;;;;;;;25.00;96.40;;;;;;5073584;28;19920;-60
2022/06/29 04:48:13;;;;;;;;;;;25.00;96.40;;;;;;5073685;28;20400;-59
2022/06/29 04:50:38;;;;;;;;;;;25.00;96.40;;;;;;5073839;28;19999;-61
2022/06/29 04:53:04;;;;;;;;;;;24.90;96.40;;;;;;5073594;28;19912;-61
2022/06/29 04:55:29;;;;;;;;;;;24.90;96.40;;;;;;5073586;28;19909;-61
2022/06/29 04:57:55;;;;;;;;;;;25.00;96.40;;;;;;5073462;28;19920;-61
2022/06/29 05:00:21;;;;;;;;;;;24.90;96.40;;;;;;5073823;28;19924;-61
2022/06/29 05:02:46;;;;;;;;;;;24.90;96.40;;;;;;5073544;28;20364;-61
2022/06/29 05:05:12;;;;;;;;;;;24.90;96.40;;;;;;5073835;28;19995;-61
2022/06/29 05:07:37;;;;;;;;;;;24.90;96.40;;;;;;5073375;28;19934;-61
2022/06/29 05:10:03;;;;;;;;;;;25.00;96.40;;;;;;5073294;28;19952;-61
2022/06/29 05:12:28;;;;;;;;;;;24.90;96.40;;;;;;5073419;28;19962;-61
2022/06/29 05:14:54;;;;;;;;;;;24.90;96.40;;;;;;5073543;28;20266;-60
2022/06/29 05:17:19;;;;;;;;;;;24.90;96.40;;;;;;5073971;28;19955;-61
2022/06/29 05:19:45;;;;;;;;;;;24.90;96.40;;;;;;5073081;28;19912;-61
2022/06/29 05:22:10;;;;;;;;;;;24.90;96.40;;;;;;5073007;28;20031;-61
2022/06/29 05:24:35;;;;;;;;;;;25.00;96.40;;;;;;5073276;28;20371;-61
2022/06/29 05:27:01;;;;;;;;;;;24.90;96.40;;;;;;5055353;28;19955;-61
2022/06/29 05:29:26;;;;;;;;;;;25.00;96.40;;;;;;5073315;28;19912;-61
2022/06/29 05:31:52;;;;;;;;;;;24.90;96.40;;;;;;5073138;28;19909;-60
2022/06/29 05:34:18;;;;;;;;;;;25.00;96.40;;;;;;5072930;28;19908;-61
2022/06/29 05:36:43;;;;;;;;;;;25.00;96.40;;;;;;5073262;28;19915;-61
2022/06/29 05:39:09;;;;;;;;;;;25.00;96.40;;;;;;5072698;28;20274;-61
2022/06/29 05:41:34;;;;;;;;;;;25.00;96.40;;;;;;5088580;28;19919;-61
2022/06/29 05:44:00;;;;;;;;;;;25.00;96.30;;;;;;5055046;28;20011;-61
2022/06/29 05:46:25;;;;;;;;;;;24.90;96.30;;;;;;5073031;28;19947;-62
2022/06/29 05:48:51;;;;;;;;;;;24.90;96.30;;;;;;5072606;28;19908;-60
2022/06/29 05:51:16;;;;;;;;;;;25.00;96.40;;;;;;5072588;28;20004;-61
2022/06/29 05:53:42;;;;;;;;;;;25.00;96.30;;;;;;5074396;28;20371;-59
2022/06/29 05:56:07;;;;;;;;;;;25.00;96.30;;;;;;5076386;28;20003;-61
2022/06/29 05:58:33;;;;;;;;;;;25.10;96.30;;;;;;5076602;28;20315;-61
2022/06/29 06:00:58;;;;;;;;;;;25.10;96.30;;;;;;5076419;28;19919;-61
2022/06/29 06:03:24;;;;;;;;;;;25.10;96.30;;;;;;5075003;28;19931;-61
2022/06/29 06:05:49;;;;;;;;;;;25.10;96.30;;;;;;5076531;28;19915;-60
2022/06/29 06:08:15;;;;;;;;;;;25.00;96.20;;;;;;5076616;28;19908;-61
2022/06/29 06:10:41;;;;;;;;;;;25.10;96.30;;;;;;5076414;28;19908;-61
2022/06/29 06:13:07;;;;;;;;;;;25.10;96.20;;;;;;5075985;28;20000;-60
2022/06/29 06:15:36;;;;;;;;;;;25.10;96.20;;;;;;5076007;28;20012;-60
2022/06/29 06:18:02;;;;;;;;;;;25.10;96.20;;;;;;5075917;28;19913;-61
2022/06/29 06:20:28;;;;;;;;;;;25.10;96.20;;;;;;5076119;28;19938;-60
2022/06/29 06:22:54;;;;;;;;;;;25.10;96.20;;;;;;5076195;28;19920;-60
2022/06/29 06:25:19;;;;;;;;;;;25.10;96.20;;;;;;5076307;28;19908;-61
2022/06/29 06:27:45;;;;;;;;;;;25.10;96.20;;;;;;5075778;28;20370;-60
2022/06/29 06:30:11;;;;;;;;;;;25.10;96.20;;;;;;5058145;28;20014;-61
2022/06/29 06:32:36;;;;;;;;;;;25.10;96.20;;;;;;5075851;28;19909;-60
2022/06/29 06:35:01;;;;;;;;;;;25.10;96.20;;;;;;5076144;28;19963;-59
2022/06/29 06:37:27;;;;;;;;;;;25.10;96.20;;;;;;5074690;28;19920;-60
2022/06/29 06:42:37;;;;;;;;;;;25.10;96.20;;;;;;5075982;28;19923;-61
2022/06/29 06:45:04;;;;;;;;;;;25.10;96.20;;;;;;5075750;28;19908;-60
2022/06/29 06:47:29;;;;;;;;;;;25.10;96.20;;;;;;5075839;28;19912;-61
2022/06/29 06:49:55;;;;;;;;;;;25.10;96.20;;;;;;5058054;28;20386;-60
2022/06/29 06:52:20;;;;;;;;;;;25.10;96.20;;;;;;5075557;28;20003;-60
2022/06/29 06:54:46;;;;;;;;;;;25.10;96.20;;;;;;5075861;28;19908;-61
2022/06/29 06:57:12;;;;;;;;;;;25.10;96.20;;;;;;5075465;28;19920;-60
2022/06/29 06:59:38;;;;;;;;;;;25.10;96.20;;;;;;5075600;28;20274;-61
2022/06/29 07:02:03;;;;;;;;;;;25.10;96.20;;;;;;5075349;28;19912;-61
2022/06/29 07:04:29;;;;;;;;;;;25.10;96.20;;;;;;5075318;28;19967;-61
2022/06/29 07:06:54;;;;;;;;;;;25.10;96.20;;;;;;5075043;28;19908;-61
2022/06/29 07:09:20;;;;;;;;;;;25.10;96.20;;;;;;5075365;28;19909;-60
2022/06/29 07:11:45;;;;;;;;;;;25.10;96.20;;;;;;5075205;28;19944;-62
2022/06/29 07:14:11;;;;;;;;;;;25.10;96.20;;;;;;5075153;28;19962;-61
2022/06/29 07:16:36;;;;;;;;;;;25.10;96.20;;;;;;5075351;28;19908;-62
2022/06/29 07:19:01;;;;;;;;;;;25.10;96.20;;;;;;5057214;28;19908;-62
2022/06/29 07:21:27;;;;;;;;;;;25.20;96.10;;;;;;5074965;28;19962;-62
2022/06/29 07:23:52;;;;;;;;;;;25.20;96.10;;;;;;5074944;28;20017;-62
2022/06/29 07:26:18;;;;;;;;;;;25.10;96.10;;;;;;5075202;28;19916;-61
2022/06/29 07:28:43;;;;;;;;;;;25.10;96.10;;;;;;5075446;28;19908;-62
2022/06/29 07:31:09;;;;;;;;;;;25.10;96.20;;;;;;5073798;28;19931;-61
2022/06/29 07:33:35;;;;;;;;;;;25.20;96.20;;;;;;5075051;28;19972;-62
2022/06/29 07:36:00;;;;;;;;;;;25.20;96.20;;;;;;5073367;28;19954;-62
2022/06/29 07:38:25;;;;;;;;;;;25.10;96.10;;;;;;5074799;28;19909;-62
2022/06/29 07:40:51;;;;;;;;;;;25.10;96.10;;;;;;5074690;28;19913;-61
2022/06/29 07:43:17;;;;;;;;;;;25.10;96.10;;;;;;5074499;28;19920;-62
2022/06/29 07:45:43;;;;;;;;;;;25.20;96.20;;;;;;5074915;28;19909;-62
2022/06/29 07:48:08;;;;;;;;;;;25.20;96.20;;;;;;5056840;28;19915;-62
2022/06/29 07:50:34;;;;;;;;;;;25.10;96.10;;;;;;5074709;28;19965;-62
2022/06/29 07:53:00;;;;;;;;;;;25.20;96.10;;;;;;5074701;28;19931;-62
2022/06/29 07:55:25;;;;;;;;;;;25.10;96.10;;;;;;5074680;28;20011;-62
2022/06/29 07:57:51;;;;;;;;;;;25.20;96.10;;;;;;5074122;28;19925;-62
2022/06/29 08:00:16;;;;;;;;;;;25.20;96.10;;;;;;5074138;28;19916;-61
2022/06/29 08:02:44;;;;;;;;;;;25.20;96.10;;;;;;5073485;28;21524;-62
2022/06/29 08:05:09;;;;;;;;;;;25.10;96.10;;;;;;5074329;28;19952;-62
2022/06/29 08:07:35;;;;;;;;;;;25.20;96.10;;;;;;5074113;28;19915;-62
2022/06/29 08:10:01;;;;;;;;;;;25.10;96.10;;;;;;5074345;28;20252;-62
2022/06/29 08:12:26;;;;;;;;;;;25.10;96.10;;;;;;5056205;28;19909;-62
2022/06/29 08:14:52;;;;;;;;;;;25.10;96.10;;;;;;5074251;28;19912;-61
2022/06/29 08:17:17;;;;;;;;;;;25.10;96.10;;;;;;5073816;28;19912;-62
2022/06/29 08:19:43;;;;;;;;;;;25.10;96.10;;;;;;5074057;28;19909;-62
2022/06/29 08:22:08;;;;;;;;;;;25.10;96.10;;;;;;5074065;28;19919;-62
2022/06/29 08:24:34;;;;;;;;;;;25.10;96.10;;;;;;5074191;28;19952;-62
2022/06/29 08:26:59;;;;;;;;;;;25.10;96.10;;;;;;5074424;28;19995;-60
2022/06/29 08:29:25;;;;;;;;;;;25.20;96.20;;;;;;5073831;28;20288;-61
2022/06/29 08:31:50;;;;;;;;;;;25.20;96.10;;;;;;5073781;28;20003;-61
2022/06/29 08:34:17;;;;;;;;;;;25.20;96.10;;;;;;5073879;28;20370;-61
2022/06/29 08:36:43;;;;;;;;;;;25.20;96.10;;;;;;5073874;28;19916;-62
2022/06/29 08:39:09;;;;;;;;;;;25.10;96.10;;;;;;5073583;28;20301;-62
2022/06/29 08:41:35;;;;;;;;;;;25.20;96.10;;;;;;5073620;28;19962;-62
2022/06/29 08:44:03;;;;;;;;;;;25.20;96.10;;;;;;5073923;28;19912;-62
2022/06/29 08:46:28;;;;;;;;;;;25.20;96.20;;;;;;5073769;28;19916;-62
2022/06/29 08:48:54;;;;;;;;;;;25.10;96.10;;;;;;5073471;28;19908;-62
2022/06/29 08:51:22;;;;;;;;;;;25.10;96.10;;;;;;5073470;28;19908;-61
2022/06/29 08:53:49;;;;;;;;;;;25.10;96.10;;;;;;5073838;28;19920;-62
2022/06/29 08:56:15;;;;;;;;;;;25.20;96.10;;;;;;5073420;28;20039;-62
2022/06/29 08:58:41;;;;;;;;;;;25.20;96.10;;;;;;5073383;28;19908;-62
2022/06/29 09:01:06;;;;;;;;;;;25.20;96.10;;;;;;5055549;28;19919;-61
2022/06/29 09:03:32;;;;;;;;;;;25.20;96.10;;;;;;5073657;28;19920;-61
2022/06/29 09:05:58;;;;;;;;;;;25.20;96.10;;;;;;5073729;28;20361;-61
2022/06/29 09:08:23;;;;;;;;;;;25.20;96.10;;;;;;5073507;28;19930;-59
2022/06/29 09:10:49;;;;;;;;;;;25.20;96.10;;;;;;5073444;28;19909;-60
2022/06/29 09:13:21;;;;;;;;;;;25.20;96.10;;;;;;5073628;28;19912;-60
2022/06/29 09:15:55;;;;;;;;;;;25.10;96.10;;;;;;5072137;28;19920;-60
2022/06/29 09:18:34;;;;;;;;;;;25.20;96.10;;;;;;5073237;28;19909;-61
2022/06/29 09:21:01;;;;;;;;;;;25.20;96.10;;;;;;5073171;28;19913;-61
2022/06/29 09:23:27;;;;;;;;;;;25.20;96.10;;;;;;5073144;28;19917;-60
2022/06/29 09:25:53;;;;;;;;;;;25.20;96.10;;;;;;5073346;28;19908;-58
2022/06/29 09:28:23;;;;;;;;;;;25.20;96.10;;;;;;5074029;28;19908;-60
2022/06/29 09:30:49;;;;;;;;;;;25.10;96.10;;;;;;5077806;28;19954;-60
2022/06/29 09:33:14;;;;;;;;;;;25.10;96.10;;;;;;5077234;28;20299;-60
2022/06/29 09:35:40;;;;;;;;;;;25.20;96.10;;;;;;5059299;28;20369;-61
2022/06/29 09:38:23;;;;;;;;;;;25.20;96.10;;;;;;5076424;28;19909;-60
2022/06/29 09:40:59;;;;;;;;;;;25.20;96.10;;;;;;5076707;28;19935;-60
2022/06/29 09:43:24;;;;;;;;;;;25.20;96.10;;;;;;5077154;28;19920;-60
2022/06/29 09:45:51;;;;;;;;;;;25.20;96.10;;;;;;5076645;28;19909;-61
2022/06/29 09:48:20;;;;;;;;;;;25.10;96.10;;;;;;5076421;28;20342;-60
2022/06/29 09:50:46;;;;;;;;;;;25.20;96.10;;;;;;5076887;28;19915;-60
2022/06/29 09:53:12;;;;;;;;;;;25.20;96.10;;;;;;5076303;28;19908;-61
2022/06/29 09:55:38;;;;;;;;;;;25.20;96.10;;;;;;5076790;28;19919;-61
2022/06/29 09:58:04;;;;;;;;;;;25.10;96.10;;;;;;5076787;28;20096;-61
2022/06/29 10:03:13;;;;;;;;;;;25.20;96.20;;;;;;5076398;28;20050;-60
2022/06/29 10:05:54;;;;;;;;;;;25.10;96.10;;;;;;5076910;28;20372;-60
2022/06/29 10:08:19;;;;;;;;;;;25.10;96.10;;;;;;5076299;28;19908;-60
2022/06/29 10:10:48;;;;;;;;;;;25.10;96.10;;;;;;5076711;28;19915;-61
2022/06/29 10:13:39;;;;;;;;;;;25.20;96.10;;;;;;5076513;28;19916;-61
2022/06/29 10:16:08;;;;;;;;;;;25.10;96.10;;;;;;5076045;28;19951;-61
2022/06/29 10:18:40;;;;;;;;;;;25.20;96.10;;;;;;5076026;28;20045;-61
2022/06/29 10:21:13;;;;;;;;;;;25.20;96.10;;;;;;5076045;28;20390;-61
2022/06/29 10:23:44;;;;;;;;;;;25.20;96.10;;;;;;5075891;28;19913;-60
2022/06/29 10:26:27;;;;;;;;;;;25.20;96.10;;;;;;5075980;28;19916;-61
2022/06/29 10:28:52;;;;;;;;;;;25.20;96.10;;;;;;5075958;28;20003;-60
2022/06/29 10:31:18;;;;;;;;;;;25.20;96.10;;;;;;5076425;28;19944;-62
2022/06/29 10:33:43;;;;;;;;;;;25.20;96.10;;;;;;5076397;28;19916;-61
2022/06/29 10:36:09;;;;;;;;;;;25.20;96.10;;;;;;5075868;28;19909;-61
2022/06/29 10:38:49;;;;;;;;;;;25.20;96.10;;;;;;5057957;28;19908;-61
2022/06/29 10:43:59;;;;;;;;;;;25.20;96.00;;;;;;5075895;28;20434;-61
2022/06/29 10:46:24;;;;;;;;;;;25.20;96.00;;;;;;5058061;28;19944;-61
2022/06/29 10:49:10;;;;;;;;;;;25.20;96.00;;;;;;5057951;28;19912;-61
2022/06/29 10:51:35;;;;;;;;;;;25.20;96.00;;;;;;5074366;28;20334;-62
2022/06/29 10:54:01;;;;;;;;;;;25.30;96.10;;;;;;5075620;28;19909;-61
2022/06/29 10:56:27;;;;;;;;;;;25.30;96.10;;;;;;5075336;28;19920;-60
2022/06/29 10:58:53;;;;;;;;;;;25.30;96.10;;;;;;5075525;28;19924;-61
2022/06/29 11:01:19;;;;;;;;;;;25.20;96.00;;;;;;5075051;28;19919;-61
2022/06/29 11:03:45;;;;;;;;;;;25.30;96.10;;;;;;5075596;28;19912;-61
2022/06/29 11:17:39;;;;;;;;;;;25.30;96.00;;;;;;5074968;28;19916;-61
2022/06/29 11:19:56;;;;;;;;;;;25.30;96.00;;;;;;5074782;28;19912;-61
2022/06/29 11:22:22;;;;;;;;;;;25.30;96.00;;;;;;5074889;28;19920;-61
2022/06/29 11:24:55;;;;;;;;;;;25.30;96.00;;;;;;5075460;28;19909;-61
2022/06/29 11:27:29;;;;;;;;;;;25.30;96.00;;;;;;5074694;28;19909;-61
2022/06/29 11:29:54;;;;;;;;;;;25.30;96.00;;;;;;5075086;28;19909;-61
2022/06/29 11:32:25;;;;;;;;;;;25.30;96.00;;;;;;5075062;28;20347;-61
2022/06/29 11:34:57;;;;;;;;;;;25.30;96.00;;;;;;5074503;28;19917;-61
2022/06/29 11:37:22;;;;;;;;;;;25.30;96.00;;;;;;5074528;28;20279;-60
2022/06/29 11:39:48;;;;;;;;;;;25.30;96.00;;;;;;5074359;28;19909;-61
2022/06/29 11:45:05;;;;;;;;;;;25.30;96.00;;;;;;5074861;28;20370;-61
2022/06/29 11:47:30;;;;;;;;;;;25.30;96.00;;;;;;5074460;28;19915;-60
2022/06/29 11:49:56;;;;;;;;;;;25.30;96.00;;;;;;5074445;28;19908;-61
2022/06/29 11:52:32;;;;;;;;;;;25.30;96.00;;;;;;5073823;28;20351;-60
2022/06/29 11:55:00;;;;;;;;;;;25.30;96.00;;;;;;5074049;28;19916;-61
2022/06/29 11:57:26;;;;;;;;;;;25.30;96.00;;;;;;5074138;28;20360;-61
2022/06/29 11:59:52;;;;;;;;;;;25.30;96.00;;;;;;5074466;28;19915;-61
2022/06/29 12:02:17;;;;;;;;;;;25.30;96.00;;;;;;5074259;28;20379;-61
2022/06/29 12:04:44;;;;;;;;;;;25.30;96.00;;;;;;5074383;28;19908;-61
2022/06/29 12:07:10;;;;;;;;;;;25.30;96.00;;;;;;5074292;28;20006;-62
2022/06/29 12:09:40;;;;;;;;;;;25.30;96.00;;;;;;5072887;28;20282;-61
2022/06/29 12:12:06;;;;;;;;;;;25.30;96.00;;;;;;5074279;28;20240;-61
2022/06/29 12:14:31;;;;;;;;;;;25.30;96.00;;;;;;5073768;28;19913;-60
2022/06/29 12:16:57;;;;;;;;;;;25.30;96.00;;;;;;5074091;28;20014;-61
2022/06/29 12:19:23;;;;;;;;;;;25.30;96.00;;;;;;5074163;28;20442;-64
2022/06/29 12:21:48;;;;;;;;;;;25.30;96.00;;;;;;5073702;28;19912;-61
2022/06/29 12:24:15;;;;;;;;;;;25.30;96.00;;;;;;5074017;28;20054;-61
2022/06/29 12:26:41;;;;;;;;;;;25.30;96.00;;;;;;5073662;28;19996;-61
2022/06/29 12:29:06;;;;;;;;;;;25.30;96.00;;;;;;5072708;28;20392;-61
2022/06/29 12:31:32;;;;;;;;;;;25.30;96.00;;;;;;5074002;28;20267;-61
2022/06/29 12:33:57;;;;;;;;;;;25.30;96.00;;;;;;5073623;28;19958;-60
2022/06/29 12:36:23;;;;;;;;;;;25.30;96.00;;;;;;5073639;28;19909;-61
2022/06/29 12:38:48;;;;;;;;;;;25.30;96.00;;;;;;5056190;28;20283;-62
2022/06/29 12:41:14;;;;;;;;;;;25.30;96.00;;;;;;5073553;28;19912;-60
2022/06/29 12:43:39;;;;;;;;;;;25.30;96.00;;;;;;5055960;28;19913;-61
2022/06/29 12:46:06;;;;;;;;;;;25.40;96.00;;;;;;5073601;28;19913;-61
2022/06/29 12:48:31;;;;;;;;;;;25.30;96.00;;;;;;5073840;28;19912;-61
2022/06/29 12:50:57;;;;;;;;;;;25.30;96.00;;;;;;5073928;28;19913;-62
2022/06/29 12:53:22;;;;;;;;;;;25.30;96.00;;;;;;5074307;28;19909;-61
2022/06/29 12:55:48;;;;;;;;;;;25.40;96.00;;;;;;5055757;28;20320;-61
2022/06/29 12:58:13;;;;;;;;;;;25.30;96.00;;;;;;5073496;28;19925;-62
2022/06/29 13:00:38;;;;;;;;;;;25.30;96.00;;;;;;5073321;28;19969;-61
2022/06/29 13:03:04;;;;;;;;;;;25.40;96.00;;;;;;5077243;28;19913;-60
2022/06/29 13:05:29;;;;;;;;;;;25.30;96.00;;;;;;5079841;28;19908;-60
2022/06/29 13:07:55;;;;;;;;;;;25.30;96.00;;;;;;5079956;28;19944;-61
2022/06/29 13:10:21;;;;;;;;;;;25.30;96.00;;;;;;5080303;28;19908;-61
2022/06/29 13:12:46;;;;;;;;;;;25.40;96.00;;;;;;5079801;28;19968;-61
2022/06/29 13:15:12;;;;;;;;;;;25.30;96.00;;;;;;5079844;28;19958;-61
2022/06/29 13:17:37;;;;;;;;;;;25.30;96.00;;;;;;5080101;28;20377;-61
2022/06/29 13:20:08;;;;;;;;;;;25.30;95.90;;;;;;5079670;28;19912;-60
2022/06/29 13:22:33;;;;;;;;;;;25.40;96.00;;;;;;5079880;28;19918;-60
2022/06/29 13:24:59;;;;;;;;;;;25.30;95.90;;;;;;5079473;28;19908;-60
2022/06/29 13:27:24;;;;;;;;;;;25.40;96.00;;;;;;5079574;28;20412;-60
2022/06/29 13:29:49;;;;;;;;;;;25.40;96.00;;;;;;5061634;28;19915;-60
2022/06/29 13:32:15;;;;;;;;;;;25.30;95.90;;;;;;5079435;28;19912;-61
2022/06/29 13:34:40;;;;;;;;;;;25.40;96.00;;;;;;5079830;28;19908;-61
2022/06/29 13:37:06;;;;;;;;;;;25.40;96.00;;;;;;5062081;28;19912;-61
2022/06/29 13:39:32;;;;;;;;;;;25.40;96.00;;;;;;5079808;28;19909;-60
2022/06/29 13:42:00;;;;;;;;;;;25.40;96.00;;;;;;5079755;28;20463;-60
2022/06/29 13:44:26;;;;;;;;;;;25.40;96.00;;;;;;5080122;28;20271;-61
2022/06/29 13:46:51;;;;;;;;;;;25.40;96.00;;;;;;5079476;28;19908;-61
2022/06/29 13:49:17;;;;;;;;;;;25.40;95.90;;;;;;5079747;28;19912;-61
2022/06/29 13:51:42;;;;;;;;;;;25.40;96.00;;;;;;5061983;28;19916;-61
2022/06/29 13:54:08;;;;;;;;;;;25.40;96.00;;;;;;5061618;28;20328;-61
2022/06/29 13:56:33;;;;;;;;;;;25.40;96.00;;;;;;5079474;28;19981;-61
2022/06/29 13:58:58;;;;;;;;;;;25.40;95.90;;;;;;5079756;28;19909;-61
2022/06/29 14:01:24;;;;;;;;;;;25.40;96.00;;;;;;5079362;28;19965;-60
2022/06/29 14:03:50;;;;;;;;;;;25.40;95.90;;;;;;5079617;28;20258;-61
2022/06/29 14:06:15;;;;;;;;;;;25.40;96.00;;;;;;5079281;28;19908;-60
2022/06/29 14:08:41;;;;;;;;;;;25.40;95.90;;;;;;5079755;28;19909;-61
2022/06/29 14:11:06;;;;;;;;;;;25.40;95.90;;;;;;5079488;28;20527;-61
2022/06/29 14:13:34;;;;;;;;;;;25.40;95.90;;;;;;5078504;28;19909;-60
2022/06/29 14:15:59;;;;;;;;;;;25.40;95.90;;;;;;5074708;28;19908;-61
2022/06/29 14:18:25;;;;;;;;;;;25.40;95.90;;;;;;5075959;28;19912;-61
2022/06/29 14:20:50;;;;;;;;;;;25.40;95.90;;;;;;5091834;28;20027;-61
2022/06/29 14:23:16;;;;;;;;;;;25.40;95.90;;;;;;5075926;28;20338;-61
2022/06/29 14:25:41;;;;;;;;;;;25.40;95.90;;;;;;5076573;28;20371;-61
2022/06/29 14:28:07;;;;;;;;;;;25.40;95.90;;;;;;5076307;28;19912;-61
2022/06/29 14:30:32;;;;;;;;;;;25.40;95.90;;;;;;5075877;28;19916;-60
2022/06/29 14:32:58;;;;;;;;;;;25.40;95.90;;;;;;5076042;28;19908;-60
2022/06/29 14:35:23;;;;;;;;;;;25.40;95.90;;;;;;5076448;28;19908;-61
2022/06/29 14:37:49;;;;;;;;;;;25.40;95.90;;;;;;5076006;28;19912;-60
2022/06/29 14:40:15;;;;;;;;;;;25.40;95.90;;;;;;5075863;28;20383;-61
2022/06/29 14:42:40;;;;;;;;;;;25.50;95.90;;;;;;5076270;28;19912;-61
2022/06/29 14:45:06;;;;;;;;;;;25.40;95.90;;;;;;5075855;28;19982;-61